sensor_id;sensor_type;location;lat;lon;timestamp;P1;durP1;ratioP1;P2;durP2;ratioP2
5129;SDS011;2583;50.946;6.954;2023-05-07T00:01:51;3.80;;;3.43;;
5129;SDS011;2583;50.946;6.954;2023-05-07T00:04:18;7.63;;;3.53;;
5129;SDS011;2583;50.946;6.954;2023-05-07T00:06:49;3.93;;;3.63;;
5129;SDS011;2583;50.946;6.954;2023-05-07T00:09:20;4.27;;;3.90;;
5129;SDS011;2583;50.946;6.954;2023-05-07T00:11:47;3.53;;;3.33;;
5129;SDS011;2583;50.946;6.954;2023-05-07T00:14:14;4.47;;;3.57;;
5129;SDS011;2583;50.946;6.954;2023-05-07T00:16:42;3.57;;;3.30;;
5129;SDS011;2583;50.946;6.954;2023-05-07T00:19:11;6.77;;;4.13;;
5129;SDS011;2583;50.946;6.954;2023-05-07T00:21:39;5.30;;;3.50;;
5129;SDS011;2583;50.946;6.954;2023-05-07T00:24:06;3.87;;;3.57;;
5129;SDS011;2583;50.946;6.954;2023-05-07T00:26:34;3.60;;;3.30;;
5129;SDS011;2583;50.946;6.954;2023-05-07T00:29:01;4.50;;;4.20;;
5129;SDS011;2583;50.946;6.954;2023-05-07T00:31:32;6.60;;;4.00;;
5129;SDS011;2583;50.946;6.954;2023-05-07T00:34:00;3.53;;;3.23;;
5129;SDS011;2583;50.946;6.954;2023-05-07T00:36:27;4.23;;;3.20;;
5129;SDS011;2583;50.946;6.954;2023-05-07T00:38:56;7.23;;;3.00;;
5129;SDS011;2583;50.946;6.954;2023-05-07T00:41:27;3.70;;;3.50;;
5129;SDS011;2583;50.946;6.954;2023-05-07T00:43:54;3.30;;;3.00;;
5129;SDS011;2583;50.946;6.954;2023-05-07T00:46:22;3.30;;;3.00;;
5129;SDS011;2583;50.946;6.954;2023-05-07T00:48:53;3.27;;;3.07;;
5129;SDS011;2583;50.946;6.954;2023-05-07T00:51:21;3.40;;;3.10;;
5129;SDS011;2583;50.946;6.954;2023-05-07T00:53:50;2.50;;;2.30;;
5129;SDS011;2583;50.946;6.954;2023-05-07T00:56:23;2.77;;;2.53;;
5129;SDS011;2583;50.946;6.954;2023-05-07T00:58:53;2.63;;;2.43;;
5129;SDS011;2583;50.946;6.954;2023-05-07T01:01:21;2.57;;;2.37;;
5129;SDS011;2583;50.946;6.954;2023-05-07T01:03:49;2.73;;;2.53;;
5129;SDS011;2583;50.946;6.954;2023-05-07T01:06:17;2.73;;;2.53;;
5129;SDS011;2583;50.946;6.954;2023-05-07T01:08:46;2.97;;;2.70;;
5129;SDS011;2583;50.946;6.954;2023-05-07T01:11:17;3.53;;;3.23;;
5129;SDS011;2583;50.946;6.954;2023-05-07T01:13:47;3.13;;;2.47;;
5129;SDS011;2583;50.946;6.954;2023-05-07T01:16:16;2.83;;;2.63;;
5129;SDS011;2583;50.946;6.954;2023-05-07T01:18:44;2.73;;;2.53;;
5129;SDS011;2583;50.946;6.954;2023-05-07T01:21:13;2.90;;;2.70;;
5129;SDS011;2583;50.946;6.954;2023-05-07T01:23:43;3.07;;;2.83;;
5129;SDS011;2583;50.946;6.954;2023-05-07T01:26:14;3.57;;;2.63;;
5129;SDS011;2583;50.946;6.954;2023-05-07T01:28:42;3.43;;;2.20;;
5129;SDS011;2583;50.946;6.954;2023-05-07T01:31:09;3.73;;;3.40;;
5129;SDS011;2583;50.946;6.954;2023-05-07T01:33:36;2.90;;;2.67;;
5129;SDS011;2583;50.946;6.954;2023-05-07T01:36:07;3.13;;;2.80;;
5129;SDS011;2583;50.946;6.954;2023-05-07T01:38:36;3.10;;;2.60;;
5129;SDS011;2583;50.946;6.954;2023-05-07T01:41:06;2.80;;;2.60;;
5129;SDS011;2583;50.946;6.954;2023-05-07T01:43:34;3.13;;;2.40;;
5129;SDS011;2583;50.946;6.954;2023-05-07T01:46:02;2.07;;;1.90;;
5129;SDS011;2583;50.946;6.954;2023-05-07T01:48:31;3.70;;;2.60;;
5129;SDS011;2583;50.946;6.954;2023-05-07T01:51:00;4.00;;;2.73;;
5129;SDS011;2583;50.946;6.954;2023-05-07T01:53:28;2.70;;;2.50;;
5129;SDS011;2583;50.946;6.954;2023-05-07T01:56:01;3.67;;;2.63;;
5129;SDS011;2583;50.946;6.954;2023-05-07T01:58:29;2.50;;;2.30;;
5129;SDS011;2583;50.946;6.954;2023-05-07T02:00:56;2.57;;;2.23;;
5129;SDS011;2583;50.946;6.954;2023-05-07T02:03:23;4.00;;;2.87;;
5129;SDS011;2583;50.946;6.954;2023-05-07T02:05:51;2.60;;;2.40;;
5129;SDS011;2583;50.946;6.954;2023-05-07T02:08:18;2.20;;;2.10;;
5129;SDS011;2583;50.946;6.954;2023-05-07T02:10:46;2.60;;;2.13;;
5129;SDS011;2583;50.946;6.954;2023-05-07T02:13:14;2.93;;;2.73;;
5129;SDS011;2583;50.946;6.954;2023-05-07T02:15:42;3.40;;;2.40;;
5129;SDS011;2583;50.946;6.954;2023-05-07T02:18:11;3.47;;;2.87;;
5129;SDS011;2583;50.946;6.954;2023-05-07T02:20:39;2.60;;;2.40;;
5129;SDS011;2583;50.946;6.954;2023-05-07T02:23:07;3.20;;;2.90;;
5129;SDS011;2583;50.946;6.954;2023-05-07T02:25:34;7.73;;;2.50;;
5129;SDS011;2583;50.946;6.954;2023-05-07T02:28:02;10.60;;;2.70;;
5129;SDS011;2583;50.946;6.954;2023-05-07T02:30:29;4.03;;;3.03;;
5129;SDS011;2583;50.946;6.954;2023-05-07T02:32:57;3.83;;;3.53;;
5129;SDS011;2583;50.946;6.954;2023-05-07T02:35:25;3.63;;;2.57;;
5129;SDS011;2583;50.946;6.954;2023-05-07T02:37:56;3.40;;;3.10;;
5129;SDS011;2583;50.946;6.954;2023-05-07T02:40:23;3.17;;;2.97;;
5129;SDS011;2583;50.946;6.954;2023-05-07T02:42:51;3.63;;;2.73;;
5129;SDS011;2583;50.946;6.954;2023-05-07T02:45:19;3.10;;;2.90;;
5129;SDS011;2583;50.946;6.954;2023-05-07T02:47:46;3.03;;;2.70;;
5129;SDS011;2583;50.946;6.954;2023-05-07T02:50:14;4.33;;;3.43;;
5129;SDS011;2583;50.946;6.954;2023-05-07T02:52:41;3.90;;;3.60;;
5129;SDS011;2583;50.946;6.954;2023-05-07T02:55:09;3.70;;;3.40;;
5129;SDS011;2583;50.946;6.954;2023-05-07T02:57:37;3.73;;;3.33;;
5129;SDS011;2583;50.946;6.954;2023-05-07T03:00:11;3.30;;;3.10;;
5129;SDS011;2583;50.946;6.954;2023-05-07T03:02:42;3.20;;;3.00;;
5129;SDS011;2583;50.946;6.954;2023-05-07T03:05:09;3.40;;;3.10;;
5129;SDS011;2583;50.946;6.954;2023-05-07T03:07:39;3.27;;;2.73;;
5129;SDS011;2583;50.946;6.954;2023-05-07T03:10:11;3.33;;;2.73;;
5129;SDS011;2583;50.946;6.954;2023-05-07T03:12:39;3.43;;;3.13;;
5129;SDS011;2583;50.946;6.954;2023-05-07T03:15:07;4.70;;;3.47;;
5129;SDS011;2583;50.946;6.954;2023-05-07T03:17:35;3.00;;;2.80;;
5129;SDS011;2583;50.946;6.954;2023-05-07T03:20:02;6.13;;;3.13;;
5129;SDS011;2583;50.946;6.954;2023-05-07T03:22:30;3.93;;;2.87;;
5129;SDS011;2583;50.946;6.954;2023-05-07T03:24:57;4.07;;;3.07;;
5129;SDS011;2583;50.946;6.954;2023-05-07T03:27:25;5.27;;;2.97;;
5129;SDS011;2583;50.946;6.954;2023-05-07T03:29:53;3.57;;;2.43;;
5129;SDS011;2583;50.946;6.954;2023-05-07T03:32:20;3.43;;;3.10;;
5129;SDS011;2583;50.946;6.954;2023-05-07T03:34:48;2.60;;;2.40;;
5129;SDS011;2583;50.946;6.954;2023-05-07T03:37:15;3.40;;;2.47;;
5129;SDS011;2583;50.946;6.954;2023-05-07T03:39:43;2.80;;;2.60;;
5129;SDS011;2583;50.946;6.954;2023-05-07T03:42:10;2.93;;;2.63;;
5129;SDS011;2583;50.946;6.954;2023-05-07T03:44:37;3.97;;;2.60;;
5129;SDS011;2583;50.946;6.954;2023-05-07T03:47:08;2.93;;;2.50;;
5129;SDS011;2583;50.946;6.954;2023-05-07T03:49:36;3.33;;;3.07;;
5129;SDS011;2583;50.946;6.954;2023-05-07T03:52:04;2.27;;;2.07;;
5129;SDS011;2583;50.946;6.954;2023-05-07T03:54:32;3.93;;;2.83;;
5129;SDS011;2583;50.946;6.954;2023-05-07T03:56:58;3.60;;;3.13;;
5129;SDS011;2583;50.946;6.954;2023-05-07T03:59:26;3.77;;;2.90;;
5129;SDS011;2583;50.946;6.954;2023-05-07T04:01:53;3.07;;;2.87;;
5129;SDS011;2583;50.946;6.954;2023-05-07T04:04:21;4.17;;;2.73;;
5129;SDS011;2583;50.946;6.954;2023-05-07T04:06:48;4.40;;;3.30;;
5129;SDS011;2583;50.946;6.954;2023-05-07T04:09:16;3.70;;;3.33;;
5129;SDS011;2583;50.946;6.954;2023-05-07T04:11:44;4.20;;;3.10;;
5129;SDS011;2583;50.946;6.954;2023-05-07T04:14:11;3.33;;;2.47;;
5129;SDS011;2583;50.946;6.954;2023-05-07T04:16:39;3.20;;;3.00;;
5129;SDS011;2583;50.946;6.954;2023-05-07T04:19:05;3.50;;;2.60;;
5129;SDS011;2583;50.946;6.954;2023-05-07T04:21:33;8.27;;;3.13;;
5129;SDS011;2583;50.946;6.954;2023-05-07T04:24:02;2.97;;;2.43;;
5129;SDS011;2583;50.946;6.954;2023-05-07T04:26:30;3.00;;;2.80;;
5129;SDS011;2583;50.946;6.954;2023-05-07T04:28:58;2.60;;;2.17;;
5129;SDS011;2583;50.946;6.954;2023-05-07T04:31:26;3.10;;;2.90;;
5129;SDS011;2583;50.946;6.954;2023-05-07T04:33:54;2.90;;;2.70;;
5129;SDS011;2583;50.946;6.954;2023-05-07T04:36:21;3.00;;;2.80;;
5129;SDS011;2583;50.946;6.954;2023-05-07T04:38:48;3.50;;;2.40;;
5129;SDS011;2583;50.946;6.954;2023-05-07T04:41:16;3.93;;;2.77;;
5129;SDS011;2583;50.946;6.954;2023-05-07T04:43:44;3.40;;;2.40;;
5129;SDS011;2583;50.946;6.954;2023-05-07T04:46:12;7.03;;;2.70;;
5129;SDS011;2583;50.946;6.954;2023-05-07T04:48:40;2.90;;;2.47;;
5129;SDS011;2583;50.946;6.954;2023-05-07T04:51:07;2.23;;;2.03;;
5129;SDS011;2583;50.946;6.954;2023-05-07T04:53:35;4.73;;;2.87;;
5129;SDS011;2583;50.946;6.954;2023-05-07T04:56:04;5.47;;;2.47;;
5129;SDS011;2583;50.946;6.954;2023-05-07T04:58:32;2.50;;;2.10;;
5129;SDS011;2583;50.946;6.954;2023-05-07T05:00:59;6.53;;;1.97;;
5129;SDS011;2583;50.946;6.954;2023-05-07T05:03:26;4.40;;;2.07;;
5129;SDS011;2583;50.946;6.954;2023-05-07T05:05:54;5.73;;;2.20;;
5129;SDS011;2583;50.946;6.954;2023-05-07T05:08:21;2.23;;;2.03;;
5129;SDS011;2583;50.946;6.954;2023-05-07T05:10:48;3.80;;;2.70;;
5129;SDS011;2583;50.946;6.954;2023-05-07T05:13:16;2.87;;;2.20;;
5129;SDS011;2583;50.946;6.954;2023-05-07T05:15:44;2.87;;;2.67;;
5129;SDS011;2583;50.946;6.954;2023-05-07T05:18:14;1.70;;;1.60;;
5129;SDS011;2583;50.946;6.954;2023-05-07T05:20:42;4.10;;;2.10;;
5129;SDS011;2583;50.946;6.954;2023-05-07T05:23:09;2.40;;;2.20;;
5129;SDS011;2583;50.946;6.954;2023-05-07T05:25:36;3.13;;;2.30;;
5129;SDS011;2583;50.946;6.954;2023-05-07T05:28:06;2.97;;;1.77;;
5129;SDS011;2583;50.946;6.954;2023-05-07T05:30:33;2.30;;;1.97;;
5129;SDS011;2583;50.946;6.954;2023-05-07T05:33:01;2.20;;;2.00;;
5129;SDS011;2583;50.946;6.954;2023-05-07T05:35:29;2.67;;;2.00;;
5129;SDS011;2583;50.946;6.954;2023-05-07T05:37:57;2.90;;;2.03;;
5129;SDS011;2583;50.946;6.954;2023-05-07T05:40:24;4.17;;;2.40;;
5129;SDS011;2583;50.946;6.954;2023-05-07T05:42:51;2.40;;;2.20;;
5129;SDS011;2583;50.946;6.954;2023-05-07T05:45:19;3.03;;;2.07;;
5129;SDS011;2583;50.946;6.954;2023-05-07T05:47:45;2.73;;;1.90;;
5129;SDS011;2583;50.946;6.954;2023-05-07T05:50:13;2.83;;;2.53;;
5129;SDS011;2583;50.946;6.954;2023-05-07T05:52:40;2.80;;;2.10;;
5129;SDS011;2583;50.946;6.954;2023-05-07T05:55:07;2.90;;;2.53;;
5129;SDS011;2583;50.946;6.954;2023-05-07T05:57:35;3.23;;;1.90;;
5129;SDS011;2583;50.946;6.954;2023-05-07T06:00:07;2.27;;;1.67;;
5129;SDS011;2583;50.946;6.954;2023-05-07T06:02:36;3.73;;;2.47;;
5129;SDS011;2583;50.946;6.954;2023-05-07T06:05:05;1.73;;;1.60;;
5129;SDS011;2583;50.946;6.954;2023-05-07T06:07:33;4.10;;;2.10;;
5129;SDS011;2583;50.946;6.954;2023-05-07T06:10:01;3.70;;;1.90;;
5129;SDS011;2583;50.946;6.954;2023-05-07T06:12:28;2.77;;;1.87;;
5129;SDS011;2583;50.946;6.954;2023-05-07T06:14:56;2.23;;;2.03;;
5129;SDS011;2583;50.946;6.954;2023-05-07T06:17:22;2.23;;;1.60;;
5129;SDS011;2583;50.946;6.954;2023-05-07T06:19:54;3.50;;;2.03;;
5129;SDS011;2583;50.946;6.954;2023-05-07T06:22:21;1.60;;;1.50;;
5129;SDS011;2583;50.946;6.954;2023-05-07T06:24:49;1.70;;;1.53;;
5129;SDS011;2583;50.946;6.954;2023-05-07T06:27:16;3.40;;;2.43;;
5129;SDS011;2583;50.946;6.954;2023-05-07T06:29:44;2.33;;;1.77;;
5129;SDS011;2583;50.946;6.954;2023-05-07T06:32:11;3.17;;;2.20;;
5129;SDS011;2583;50.946;6.954;2023-05-07T06:34:40;5.93;;;1.57;;
5129;SDS011;2583;50.946;6.954;2023-05-07T06:37:07;2.97;;;1.50;;
5129;SDS011;2583;50.946;6.954;2023-05-07T06:39:35;5.70;;;2.00;;
5129;SDS011;2583;50.946;6.954;2023-05-07T06:42:03;2.43;;;2.23;;
5129;SDS011;2583;50.946;6.954;2023-05-07T06:44:32;2.10;;;1.80;;
5129;SDS011;2583;50.946;6.954;2023-05-07T06:46:59;3.67;;;1.90;;
5129;SDS011;2583;50.946;6.954;2023-05-07T06:49:27;3.47;;;1.60;;
5129;SDS011;2583;50.946;6.954;2023-05-07T06:51:54;3.37;;;1.90;;
5129;SDS011;2583;50.946;6.954;2023-05-07T06:54:22;2.10;;;1.90;;
5129;SDS011;2583;50.946;6.954;2023-05-07T06:56:50;2.13;;;1.77;;
5129;SDS011;2583;50.946;6.954;2023-05-07T06:59:18;2.73;;;1.80;;
5129;SDS011;2583;50.946;6.954;2023-05-07T07:01:49;2.30;;;2.10;;
5129;SDS011;2583;50.946;6.954;2023-05-07T07:04:16;2.30;;;1.30;;
5129;SDS011;2583;50.946;6.954;2023-05-07T07:06:44;2.10;;;1.90;;
5129;SDS011;2583;50.946;6.954;2023-05-07T07:09:12;1.50;;;1.40;;
5129;SDS011;2583;50.946;6.954;2023-05-07T07:11:41;1.63;;;1.50;;
5129;SDS011;2583;50.946;6.954;2023-05-07T07:14:09;2.60;;;1.70;;
5129;SDS011;2583;50.946;6.954;2023-05-07T07:16:37;2.17;;;1.80;;
5129;SDS011;2583;50.946;6.954;2023-05-07T07:19:04;1.97;;;1.60;;
5129;SDS011;2583;50.946;6.954;2023-05-07T07:21:32;4.13;;;1.80;;
5129;SDS011;2583;50.946;6.954;2023-05-07T07:23:59;1.60;;;1.50;;
5129;SDS011;2583;50.946;6.954;2023-05-07T07:26:28;3.80;;;1.80;;
5129;SDS011;2583;50.946;6.954;2023-05-07T07:28:56;1.50;;;1.40;;
5129;SDS011;2583;50.946;6.954;2023-05-07T07:31:25;2.10;;;1.60;;
5129;SDS011;2583;50.946;6.954;2023-05-07T07:33:53;2.27;;;1.77;;
5129;SDS011;2583;50.946;6.954;2023-05-07T07:36:20;3.67;;;1.80;;
5129;SDS011;2583;50.946;6.954;2023-05-07T07:38:53;1.70;;;1.43;;
5129;SDS011;2583;50.946;6.954;2023-05-07T07:41:20;2.60;;;1.53;;
5129;SDS011;2583;50.946;6.954;2023-05-07T07:43:48;1.80;;;1.70;;
5129;SDS011;2583;50.946;6.954;2023-05-07T07:46:15;2.60;;;1.73;;
5129;SDS011;2583;50.946;6.954;2023-05-07T07:48:44;2.40;;;1.67;;
5129;SDS011;2583;50.946;6.954;2023-05-07T07:51:11;4.03;;;1.80;;
5129;SDS011;2583;50.946;6.954;2023-05-07T07:53:38;2.03;;;1.80;;
5129;SDS011;2583;50.946;6.954;2023-05-07T07:56:05;2.10;;;1.90;;
5129;SDS011;2583;50.946;6.954;2023-05-07T07:58:32;3.93;;;1.57;;
5129;SDS011;2583;50.946;6.954;2023-05-07T08:00:59;3.23;;;1.90;;
5129;SDS011;2583;50.946;6.954;2023-05-07T08:03:26;4.23;;;1.50;;
5129;SDS011;2583;50.946;6.954;2023-05-07T08:05:54;3.00;;;1.70;;
5129;SDS011;2583;50.946;6.954;2023-05-07T08:08:22;3.83;;;1.80;;
5129;SDS011;2583;50.946;6.954;2023-05-07T08:10:50;1.70;;;1.60;;
5129;SDS011;2583;50.946;6.954;2023-05-07T08:13:17;2.30;;;1.90;;
5129;SDS011;2583;50.946;6.954;2023-05-07T08:15:45;2.47;;;1.90;;
5129;SDS011;2583;50.946;6.954;2023-05-07T08:18:12;1.80;;;1.27;;
5129;SDS011;2583;50.946;6.954;2023-05-07T08:20:40;2.17;;;1.80;;
5129;SDS011;2583;50.946;6.954;2023-05-07T08:23:08;1.60;;;1.40;;
5129;SDS011;2583;50.946;6.954;2023-05-07T08:25:35;2.40;;;2.20;;
5129;SDS011;2583;50.946;6.954;2023-05-07T08:28:04;2.07;;;1.97;;
5129;SDS011;2583;50.946;6.954;2023-05-07T08:30:35;2.20;;;1.40;;
5129;SDS011;2583;50.946;6.954;2023-05-07T08:33:02;2.63;;;1.40;;
5129;SDS011;2583;50.946;6.954;2023-05-07T08:35:33;3.73;;;1.40;;
5129;SDS011;2583;50.946;6.954;2023-05-07T08:38:00;2.80;;;1.40;;
5129;SDS011;2583;50.946;6.954;2023-05-07T08:40:27;3.57;;;1.77;;
5129;SDS011;2583;50.946;6.954;2023-05-07T08:42:55;1.83;;;1.73;;
5129;SDS011;2583;50.946;6.954;2023-05-07T08:45:23;3.40;;;1.60;;
5129;SDS011;2583;50.946;6.954;2023-05-07T08:47:54;2.23;;;2.03;;
5129;SDS011;2583;50.946;6.954;2023-05-07T08:50:24;2.77;;;1.50;;
5129;SDS011;2583;50.946;6.954;2023-05-07T08:52:51;3.47;;;1.60;;
5129;SDS011;2583;50.946;6.954;2023-05-07T08:55:18;2.93;;;1.67;;
5129;SDS011;2583;50.946;6.954;2023-05-07T08:57:46;2.87;;;1.90;;
5129;SDS011;2583;50.946;6.954;2023-05-07T09:00:14;1.70;;;1.40;;
5129;SDS011;2583;50.946;6.954;2023-05-07T09:02:41;1.70;;;1.47;;
5129;SDS011;2583;50.946;6.954;2023-05-07T09:05:08;2.00;;;1.70;;
5129;SDS011;2583;50.946;6.954;2023-05-07T09:07:36;1.93;;;1.73;;
5129;SDS011;2583;50.946;6.954;2023-05-07T09:10:03;2.40;;;1.93;;
5129;SDS011;2583;50.946;6.954;2023-05-07T09:12:30;2.33;;;1.97;;
5129;SDS011;2583;50.946;6.954;2023-05-07T09:14:58;2.30;;;1.50;;
5129;SDS011;2583;50.946;6.954;2023-05-07T09:17:25;2.60;;;1.60;;
5129;SDS011;2583;50.946;6.954;2023-05-07T09:19:52;3.90;;;1.93;;
5129;SDS011;2583;50.946;6.954;2023-05-07T09:22:19;2.57;;;2.37;;
5129;SDS011;2583;50.946;6.954;2023-05-07T09:24:50;2.40;;;1.87;;
5129;SDS011;2583;50.946;6.954;2023-05-07T09:27:17;2.37;;;1.30;;
5129;SDS011;2583;50.946;6.954;2023-05-07T09:29:44;1.60;;;1.33;;
5129;SDS011;2583;50.946;6.954;2023-05-07T09:32:11;2.10;;;1.90;;
5129;SDS011;2583;50.946;6.954;2023-05-07T09:34:38;2.40;;;1.70;;
5129;SDS011;2583;50.946;6.954;2023-05-07T09:37:05;1.40;;;1.20;;
5129;SDS011;2583;50.946;6.954;2023-05-07T09:39:38;1.83;;;1.40;;
5129;SDS011;2583;50.946;6.954;2023-05-07T09:42:05;2.60;;;2.00;;
5129;SDS011;2583;50.946;6.954;2023-05-07T09:44:33;2.10;;;1.23;;
5129;SDS011;2583;50.946;6.954;2023-05-07T09:47:00;2.57;;;1.53;;
5129;SDS011;2583;50.946;6.954;2023-05-07T09:49:30;1.93;;;1.40;;
5129;SDS011;2583;50.946;6.954;2023-05-07T09:52:02;2.60;;;2.00;;
5129;SDS011;2583;50.946;6.954;2023-05-07T09:54:32;1.73;;;1.53;;
5129;SDS011;2583;50.946;6.954;2023-05-07T09:57:01;2.83;;;1.40;;
5129;SDS011;2583;50.946;6.954;2023-05-07T09:59:29;1.70;;;1.60;;
5129;SDS011;2583;50.946;6.954;2023-05-07T10:01:58;2.47;;;1.80;;
5129;SDS011;2583;50.946;6.954;2023-05-07T10:04:30;1.47;;;1.37;;
5129;SDS011;2583;50.946;6.954;2023-05-07T10:06:58;2.77;;;1.57;;
5129;SDS011;2583;50.946;6.954;2023-05-07T10:09:26;5.83;;;1.33;;
5129;SDS011;2583;50.946;6.954;2023-05-07T10:11:54;2.33;;;1.37;;
5129;SDS011;2583;50.946;6.954;2023-05-07T10:14:22;1.80;;;1.10;;
5129;SDS011;2583;50.946;6.954;2023-05-07T10:16:50;2.13;;;1.60;;
5129;SDS011;2583;50.946;6.954;2023-05-07T10:19:18;1.63;;;1.53;;
5129;SDS011;2583;50.946;6.954;2023-05-07T10:22:05;1.90;;;1.60;;
5129;SDS011;2583;50.946;6.954;2023-05-07T10:24:34;3.03;;;1.63;;
5129;SDS011;2583;50.946;6.954;2023-05-07T10:27:08;3.23;;;1.60;;
5129;SDS011;2583;50.946;6.954;2023-05-07T10:32:19;2.10;;;1.90;;
5129;SDS011;2583;50.946;6.954;2023-05-07T10:34:53;2.23;;;2.00;;
5129;SDS011;2583;50.946;6.954;2023-05-07T10:37:22;2.50;;;1.40;;
5129;SDS011;2583;50.946;6.954;2023-05-07T10:39:51;2.50;;;2.30;;
5129;SDS011;2583;50.946;6.954;2023-05-07T10:42:18;1.97;;;1.40;;
5129;SDS011;2583;50.946;6.954;2023-05-07T10:44:45;4.67;;;2.87;;
5129;SDS011;2583;50.946;6.954;2023-05-07T10:47:12;3.37;;;2.43;;
5129;SDS011;2583;50.946;6.954;2023-05-07T10:52:12;1.60;;;1.20;;
5129;SDS011;2583;50.946;6.954;2023-05-07T10:54:40;7.07;;;3.90;;
5129;SDS011;2583;50.946;6.954;2023-05-07T11:00:03;2.33;;;1.30;;
5129;SDS011;2583;50.946;6.954;2023-05-07T11:03:07;2.40;;;1.73;;
5129;SDS011;2583;50.946;6.954;2023-05-07T11:05:35;1.77;;;1.47;;
5129;SDS011;2583;50.946;6.954;2023-05-07T11:08:04;4.47;;;1.77;;
5129;SDS011;2583;50.946;6.954;2023-05-07T11:16:22;5.80;;;2.47;;
5129;SDS011;2583;50.946;6.954;2023-05-07T11:18:51;1.37;;;1.10;;
5129;SDS011;2583;50.946;6.954;2023-05-07T11:24:01;1.50;;;1.20;;
5129;SDS011;2583;50.946;6.954;2023-05-07T11:26:30;2.00;;;1.47;;
5129;SDS011;2583;50.946;6.954;2023-05-07T11:29:22;1.87;;;1.07;;
5129;SDS011;2583;50.946;6.954;2023-05-07T11:31:52;2.60;;;1.13;;
5129;SDS011;2583;50.946;6.954;2023-05-07T11:34:23;3.23;;;1.40;;
5129;SDS011;2583;50.946;6.954;2023-05-07T11:36:51;2.83;;;1.20;;
5129;SDS011;2583;50.946;6.954;2023-05-07T11:39:25;1.70;;;0.90;;
5129;SDS011;2583;50.946;6.954;2023-05-07T11:41:56;1.53;;;1.33;;
5129;SDS011;2583;50.946;6.954;2023-05-07T11:44:24;2.00;;;1.80;;
5129;SDS011;2583;50.946;6.954;2023-05-07T11:46:51;4.10;;;2.10;;
5129;SDS011;2583;50.946;6.954;2023-05-07T11:49:18;2.43;;;1.30;;
5129;SDS011;2583;50.946;6.954;2023-05-07T11:51:45;2.63;;;1.37;;
5129;SDS011;2583;50.946;6.954;2023-05-07T11:54:15;2.00;;;1.40;;
5129;SDS011;2583;50.946;6.954;2023-05-07T11:56:41;2.10;;;2.00;;
5129;SDS011;2583;50.946;6.954;2023-05-07T11:59:10;1.53;;;1.20;;
5129;SDS011;2583;50.946;6.954;2023-05-07T12:01:36;2.07;;;1.27;;
5129;SDS011;2583;50.946;6.954;2023-05-07T12:04:03;4.03;;;1.47;;
5129;SDS011;2583;50.946;6.954;2023-05-07T12:06:35;1.77;;;1.30;;
5129;SDS011;2583;50.946;6.954;2023-05-07T12:09:03;4.77;;;2.73;;
5129;SDS011;2583;50.946;6.954;2023-05-07T12:11:31;2.77;;;1.43;;
5129;SDS011;2583;50.946;6.954;2023-05-07T12:13:57;2.70;;;2.00;;
5129;SDS011;2583;50.946;6.954;2023-05-07T12:16:25;1.40;;;1.23;;
5129;SDS011;2583;50.946;6.954;2023-05-07T12:18:53;2.60;;;1.30;;
5129;SDS011;2583;50.946;6.954;2023-05-07T12:21:21;1.90;;;1.30;;
5129;SDS011;2583;50.946;6.954;2023-05-07T12:23:49;1.93;;;1.40;;
5129;SDS011;2583;50.946;6.954;2023-05-07T12:26:16;1.90;;;1.70;;
5129;SDS011;2583;50.946;6.954;2023-05-07T12:28:45;1.40;;;0.97;;
5129;SDS011;2583;50.946;6.954;2023-05-07T12:31:13;1.70;;;1.40;;
5129;SDS011;2583;50.946;6.954;2023-05-07T12:33:42;1.50;;;1.13;;
5129;SDS011;2583;50.946;6.954;2023-05-07T12:36:11;3.10;;;1.40;;
5129;SDS011;2583;50.946;6.954;2023-05-07T12:38:39;1.40;;;1.17;;
5129;SDS011;2583;50.946;6.954;2023-05-07T12:41:08;1.30;;;1.10;;
5129;SDS011;2583;50.946;6.954;2023-05-07T12:43:36;3.17;;;1.23;;
5129;SDS011;2583;50.946;6.954;2023-05-07T12:46:05;1.97;;;1.30;;
5129;SDS011;2583;50.946;6.954;2023-05-07T12:48:33;1.77;;;1.30;;
5129;SDS011;2583;50.946;6.954;2023-05-07T12:51:02;1.43;;;1.20;;
5129;SDS011;2583;50.946;6.954;2023-05-07T12:53:29;1.90;;;1.27;;
5129;SDS011;2583;50.946;6.954;2023-05-07T12:55:58;2.63;;;1.20;;
5129;SDS011;2583;50.946;6.954;2023-05-07T12:58:30;1.80;;;1.40;;
5129;SDS011;2583;50.946;6.954;2023-05-07T13:00:59;1.60;;;1.13;;
5129;SDS011;2583;50.946;6.954;2023-05-07T13:03:31;1.70;;;1.50;;
5129;SDS011;2583;50.946;6.954;2023-05-07T13:06:01;1.50;;;1.10;;
5129;SDS011;2583;50.946;6.954;2023-05-07T13:08:30;7.37;;;1.73;;
5129;SDS011;2583;50.946;6.954;2023-05-07T13:10:59;1.67;;;1.23;;
5129;SDS011;2583;50.946;6.954;2023-05-07T13:13:33;1.50;;;1.40;;
5129;SDS011;2583;50.946;6.954;2023-05-07T13:16:02;1.67;;;1.57;;
5129;SDS011;2583;50.946;6.954;2023-05-07T13:18:30;1.90;;;1.70;;
5129;SDS011;2583;50.946;6.954;2023-05-07T13:20:57;1.97;;;1.50;;
5129;SDS011;2583;50.946;6.954;2023-05-07T13:23:25;1.40;;;1.30;;
5129;SDS011;2583;50.946;6.954;2023-05-07T13:25:52;1.73;;;1.60;;
5129;SDS011;2583;50.946;6.954;2023-05-07T13:28:20;1.70;;;1.37;;
5129;SDS011;2583;50.946;6.954;2023-05-07T13:30:48;2.23;;;1.60;;
5129;SDS011;2583;50.946;6.954;2023-05-07T13:33:15;2.73;;;1.43;;
5129;SDS011;2583;50.946;6.954;2023-05-07T13:35:42;1.60;;;1.20;;
5129;SDS011;2583;50.946;6.954;2023-05-07T13:38:09;2.03;;;1.67;;
5129;SDS011;2583;50.946;6.954;2023-05-07T13:40:37;1.40;;;1.20;;
5129;SDS011;2583;50.946;6.954;2023-05-07T13:43:05;1.70;;;1.60;;
5129;SDS011;2583;50.946;6.954;2023-05-07T13:45:33;1.63;;;1.53;;
5129;SDS011;2583;50.946;6.954;2023-05-07T13:48:01;4.40;;;1.53;;
5129;SDS011;2583;50.946;6.954;2023-05-07T13:50:31;1.87;;;1.47;;
5129;SDS011;2583;50.946;6.954;2023-05-07T13:52:58;2.10;;;1.50;;
5129;SDS011;2583;50.946;6.954;2023-05-07T13:55:28;4.53;;;1.80;;
5129;SDS011;2583;50.946;6.954;2023-05-07T13:57:56;1.70;;;1.57;;
5129;SDS011;2583;50.946;6.954;2023-05-07T14:00:25;4.23;;;3.47;;
5129;SDS011;2583;50.946;6.954;2023-05-07T14:02:53;2.23;;;2.00;;
5129;SDS011;2583;50.946;6.954;2023-05-07T14:05:22;2.20;;;1.80;;
5129;SDS011;2583;50.946;6.954;2023-05-07T14:07:53;2.23;;;1.80;;
5129;SDS011;2583;50.946;6.954;2023-05-07T14:10:21;2.00;;;1.30;;
5129;SDS011;2583;50.946;6.954;2023-05-07T14:12:52;1.70;;;1.10;;
5129;SDS011;2583;50.946;6.954;2023-05-07T14:15:19;6.20;;;1.30;;
5129;SDS011;2583;50.946;6.954;2023-05-07T14:17:46;2.23;;;1.27;;
5129;SDS011;2583;50.946;6.954;2023-05-07T14:20:14;3.03;;;2.20;;
5129;SDS011;2583;50.946;6.954;2023-05-07T14:22:42;2.93;;;1.53;;
5129;SDS011;2583;50.946;6.954;2023-05-07T14:25:09;2.40;;;1.20;;
5129;SDS011;2583;50.946;6.954;2023-05-07T14:27:37;1.53;;;1.43;;
5129;SDS011;2583;50.946;6.954;2023-05-07T14:30:04;2.10;;;1.90;;
5129;SDS011;2583;50.946;6.954;2023-05-07T14:32:33;1.87;;;1.67;;
5129;SDS011;2583;50.946;6.954;2023-05-07T14:35:00;6.97;;;1.87;;
5129;SDS011;2583;50.946;6.954;2023-05-07T14:37:28;3.03;;;2.10;;
5129;SDS011;2583;50.946;6.954;2023-05-07T14:39:55;2.30;;;2.10;;
5129;SDS011;2583;50.946;6.954;2023-05-07T14:42:22;1.83;;;1.63;;
5129;SDS011;2583;50.946;6.954;2023-05-07T14:44:50;1.87;;;1.67;;
5129;SDS011;2583;50.946;6.954;2023-05-07T14:47:18;2.80;;;2.17;;
5129;SDS011;2583;50.946;6.954;2023-05-07T14:49:45;2.17;;;1.70;;
5129;SDS011;2583;50.946;6.954;2023-05-07T14:52:12;2.97;;;2.00;;
5129;SDS011;2583;50.946;6.954;2023-05-07T14:54:40;1.90;;;1.73;;
5129;SDS011;2583;50.946;6.954;2023-05-07T14:57:08;2.60;;;2.00;;
5129;SDS011;2583;50.946;6.954;2023-05-07T14:59:37;1.93;;;1.63;;
5129;SDS011;2583;50.946;6.954;2023-05-07T15:02:05;2.03;;;1.83;;
5129;SDS011;2583;50.946;6.954;2023-05-07T15:04:34;9.10;;;8.13;;
5129;SDS011;2583;50.946;6.954;2023-05-07T15:07:02;11.83;;;9.00;;
5129;SDS011;2583;50.946;6.954;2023-05-07T15:09:29;8.67;;;7.77;;
5129;SDS011;2583;50.946;6.954;2023-05-07T15:11:57;5.27;;;4.87;;
5129;SDS011;2583;50.946;6.954;2023-05-07T15:14:24;9.00;;;8.20;;
5129;SDS011;2583;50.946;6.954;2023-05-07T15:16:51;6.90;;;6.23;;
5129;SDS011;2583;50.946;6.954;2023-05-07T15:19:18;7.70;;;7.00;;
5129;SDS011;2583;50.946;6.954;2023-05-07T15:21:45;14.30;;;9.40;;
5129;SDS011;2583;50.946;6.954;2023-05-07T15:24:13;4.87;;;4.53;;
5129;SDS011;2583;50.946;6.954;2023-05-07T15:26:41;3.73;;;3.43;;
5129;SDS011;2583;50.946;6.954;2023-05-07T15:29:12;3.03;;;2.83;;
5129;SDS011;2583;50.946;6.954;2023-05-07T15:31:38;2.60;;;2.40;;
5129;SDS011;2583;50.946;6.954;2023-05-07T15:34:06;2.80;;;2.60;;
5129;SDS011;2583;50.946;6.954;2023-05-07T15:36:34;2.37;;;2.13;;
5129;SDS011;2583;50.946;6.954;2023-05-07T15:39:01;5.37;;;4.40;;